createdAt,value
2018-08-23T03:01:03.927Z,987.01
2018-08-23T03:02:04.236Z,987.04
2018-08-23T03:03:04.848Z,987.05
2018-08-23T03:04:05.678Z,987.03
2018-08-23T03:05:04.471Z,987.04
2018-08-23T03:06:05.447Z,987.06
2018-08-23T03:07:06.891Z,987.00
2018-08-23T03:08:05.402Z,987.00
2018-08-23T03:09:07.259Z,986.99
2018-08-23T03:10:06.150Z,986.98
2018-08-23T03:11:04.958Z,986.99
2018-08-23T03:12:03.932Z,987.01
2018-08-23T03:13:04.014Z,987.02
2018-08-23T03:14:04.084Z,987.01
2018-08-23T03:15:04.444Z,986.99
2018-08-23T03:16:04.541Z,986.98
2018-08-23T03:17:04.680Z,986.96
2018-08-23T03:18:04.901Z,986.94
2018-08-23T03:19:04.928Z,986.98
2018-08-23T03:20:05.139Z,987.02
2018-08-23T03:21:05.469Z,986.94
2018-08-23T03:22:05.610Z,986.98
2018-08-23T03:23:05.818Z,986.97
2018-08-23T03:24:05.862Z,986.94
2018-08-23T03:25:06.278Z,986.90
2018-08-23T03:26:06.363Z,986.91
2018-08-23T03:27:06.641Z,986.88
2018-08-23T03:28:06.786Z,986.88
2018-08-23T03:29:06.929Z,986.92
2018-08-23T03:30:07.048Z,986.93
2018-08-23T03:31:07.307Z,986.87
2018-08-23T03:32:08.023Z,986.87
2018-08-23T03:33:07.472Z,986.85
2018-08-23T03:34:07.682Z,986.86
2018-08-23T03:35:07.876Z,986.80
2018-08-23T03:36:08.030Z,986.82
2018-08-23T03:37:08.304Z,986.84
2018-08-23T03:38:08.552Z,986.81
2018-08-23T03:39:08.658Z,986.84
2018-08-23T03:40:08.708Z,986.83
2018-08-23T03:41:09.092Z,986.82
2018-08-23T03:42:09.158Z,986.80
2018-08-23T03:43:09.449Z,986.78
2018-08-23T03:44:09.550Z,986.80
2018-08-23T03:45:09.794Z,986.78
2018-08-23T03:46:09.883Z,986.82
2018-08-23T03:47:10.018Z,986.80
2018-08-23T03:48:10.192Z,986.75
2018-08-23T03:49:10.505Z,986.76
2018-08-23T03:50:10.633Z,986.78
2018-08-23T03:51:10.870Z,986.78
2018-08-23T03:52:11.155Z,986.78
2018-08-23T03:53:11.258Z,986.82
2018-08-23T03:54:11.387Z,986.81
2018-08-23T03:55:11.743Z,986.80
2018-08-23T03:56:11.922Z,986.79
2018-08-23T03:57:11.919Z,986.83
2018-08-23T03:58:12.221Z,986.83
2018-08-23T03:59:12.282Z,986.82
2018-08-23T04:00:12.763Z,986.82
2018-08-23T04:01:13.045Z,986.80
2018-08-23T04:02:13.186Z,986.79
2018-08-23T04:03:13.300Z,986.78
2018-08-23T04:04:13.701Z,986.81
2018-08-23T04:05:13.687Z,986.79
2018-08-23T04:06:14.146Z,986.78
2018-08-23T04:07:14.012Z,986.78
2018-08-23T04:08:14.119Z,986.77
2018-08-23T04:09:14.333Z,986.74
2018-08-23T04:10:14.668Z,986.77
2018-08-23T04:11:14.917Z,986.74
2018-08-23T04:12:15.623Z,986.70
2018-08-23T04:13:15.089Z,986.72
2018-08-23T04:14:15.407Z,986.76
2018-08-23T04:15:15.619Z,986.72
2018-08-23T04:16:15.876Z,986.74
2018-08-23T04:17:16.007Z,986.72
2018-08-23T04:18:15.914Z,986.72
2018-08-23T04:19:16.128Z,986.73
2018-08-23T04:20:16.518Z,986.77
2018-08-23T04:21:16.824Z,986.76
2018-08-23T04:22:16.912Z,986.76
2018-08-23T04:23:16.961Z,986.76
2018-08-23T04:24:17.231Z,986.76
2018-08-23T04:25:17.377Z,986.78
2018-08-23T04:26:17.542Z,986.77
2018-08-23T04:27:17.844Z,986.74
2018-08-23T04:28:18.245Z,986.74
2018-08-23T04:29:18.277Z,986.74
2018-08-23T04:30:18.336Z,986.78
2018-08-23T04:31:18.686Z,986.79
2018-08-23T04:32:18.376Z,986.72
2018-08-23T04:33:18.491Z,986.74
2018-08-23T04:34:18.800Z,986.72
2018-08-23T04:35:19.112Z,986.74
2018-08-23T04:36:19.196Z,986.74
2018-08-23T04:37:19.615Z,986.72
2018-08-23T04:38:19.732Z,986.73
2018-08-23T04:39:19.753Z,986.77
2018-08-23T04:40:19.901Z,986.72
2018-08-23T04:41:20.025Z,986.79
2018-08-23T04:42:20.311Z,986.75
2018-08-23T04:43:20.488Z,986.79
2018-08-23T04:44:20.763Z,986.78
2018-08-23T04:45:20.808Z,986.76
2018-08-23T04:46:20.956Z,986.74
2018-08-23T04:47:21.321Z,986.75
2018-08-23T04:48:21.328Z,986.75
2018-08-23T04:49:21.576Z,986.78
2018-08-23T04:50:21.739Z,986.75
2018-08-23T04:51:22.036Z,986.76
2018-08-23T04:52:22.002Z,986.79
2018-08-23T04:53:22.426Z,986.79
2018-08-23T04:54:22.826Z,986.77
2018-08-23T04:55:22.879Z,986.80
2018-08-23T04:56:22.969Z,986.78
2018-08-23T04:57:23.273Z,986.77
2018-08-23T04:58:23.341Z,986.77
2018-08-23T04:59:23.536Z,986.80
2018-08-23T05:00:23.663Z,986.78
2018-08-23T05:01:23.956Z,986.80
2018-08-23T05:02:23.952Z,986.75
2018-08-23T05:03:24.354Z,986.78
2018-08-23T05:04:24.304Z,986.78
2018-08-23T05:05:24.569Z,986.78
2018-08-23T05:06:24.593Z,986.77
2018-08-23T05:07:25.087Z,986.76
2018-08-23T05:08:25.314Z,986.79
2018-08-23T05:09:25.257Z,986.77
2018-08-23T05:10:25.390Z,986.79
2018-08-23T05:11:25.609Z,986.77
2018-08-23T05:12:25.721Z,986.82
2018-08-23T05:13:25.903Z,986.80
2018-08-23T05:14:26.537Z,986.71
2018-08-23T05:15:26.363Z,986.73
2018-08-23T05:16:26.585Z,986.72
2018-08-23T05:17:26.633Z,986.74
2018-08-23T05:18:26.780Z,986.74
2018-08-23T05:19:27.019Z,986.71
2018-08-23T05:20:27.202Z,986.77
2018-08-23T05:21:27.252Z,986.77
2018-08-23T05:22:28.058Z,986.77
2018-08-23T05:23:27.854Z,986.76
2018-08-23T05:24:28.003Z,986.76
2018-08-23T05:25:28.066Z,986.79
2018-08-23T05:26:28.192Z,986.75
2018-08-23T05:27:28.502Z,986.73
2018-08-23T05:28:28.724Z,986.72
2018-08-23T05:29:28.807Z,986.78
2018-08-23T05:30:29.135Z,986.79
2018-08-23T05:31:29.269Z,986.78
2018-08-23T05:32:29.406Z,986.78
2018-08-23T05:33:29.557Z,986.74
2018-08-23T05:34:30.079Z,986.76
2018-08-23T05:35:30.136Z,986.76
2018-08-23T05:36:30.200Z,986.75
2018-08-23T05:37:30.456Z,986.70
2018-08-23T05:38:30.677Z,986.73
2018-08-23T05:39:30.635Z,986.68
2018-08-23T05:40:30.997Z,986.71
2018-08-23T05:41:31.295Z,986.72
2018-08-23T05:42:31.240Z,986.71
2018-08-23T05:43:31.483Z,986.70
2018-08-23T05:44:31.654Z,986.74
2018-08-23T05:45:31.787Z,986.71
2018-08-23T05:46:31.900Z,986.73
2018-08-23T05:47:32.269Z,986.69
2018-08-23T05:48:32.359Z,986.69
2018-08-23T05:49:32.651Z,986.70
2018-08-23T05:50:32.647Z,986.69
2018-08-23T05:51:32.864Z,986.68
2018-08-23T05:52:33.182Z,986.68
2018-08-23T05:53:33.089Z,986.66
2018-08-23T05:54:33.274Z,986.66
2018-08-23T05:55:33.676Z,986.68
2018-08-23T05:56:33.722Z,986.70
2018-08-23T05:57:33.995Z,986.64
2018-08-23T05:58:34.233Z,986.62
2018-08-23T05:59:34.502Z,986.60
2018-08-23T06:00:34.553Z,986.62
2018-08-23T06:01:34.777Z,986.62
2018-08-23T06:02:35.069Z,986.62
2018-08-23T06:03:35.055Z,986.63
2018-08-23T06:04:35.313Z,986.62
2018-08-23T06:05:35.451Z,986.62
2018-08-23T06:06:35.727Z,986.60
2018-08-23T06:07:35.724Z,986.63
2018-08-23T06:08:35.910Z,986.61
2018-08-23T06:09:36.202Z,986.59
2018-08-23T06:10:36.295Z,986.56
2018-08-23T06:11:36.690Z,986.54
2018-08-23T06:12:36.837Z,986.57
2018-08-23T06:13:37.154Z,986.53
2018-08-23T06:14:37.215Z,986.52
2018-08-23T06:15:37.259Z,986.52
2018-08-23T06:16:37.497Z,986.52
2018-08-23T06:17:37.734Z,986.55
2018-08-23T06:18:37.908Z,986.56
2018-08-23T06:19:38.059Z,986.57
2018-08-23T06:20:38.241Z,986.57
2018-08-23T06:21:38.265Z,986.57
2018-08-23T06:22:38.548Z,986.55
2018-08-23T06:23:38.527Z,986.57
2018-08-23T06:24:38.965Z,986.61
2018-08-23T06:25:39.189Z,986.58
2018-08-23T06:26:39.278Z,986.58
2018-08-23T06:27:39.420Z,986.58
2018-08-23T06:28:39.553Z,986.57
2018-08-23T06:29:39.959Z,986.55
2018-08-23T06:30:40.032Z,986.55
2018-08-23T06:31:40.225Z,986.53
2018-08-23T06:32:40.320Z,986.55
2018-08-23T06:33:40.487Z,986.57
2018-08-23T06:34:40.712Z,986.54
2018-08-23T06:35:41.082Z,986.57
2018-08-23T06:36:41.017Z,986.53
2018-08-23T06:37:41.127Z,986.50
2018-08-23T06:38:41.434Z,986.51
2018-08-23T06:39:41.839Z,986.51
2018-08-23T06:40:41.848Z,986.52
2018-08-23T06:41:41.948Z,986.51
2018-08-23T06:42:41.944Z,986.46
2018-08-23T06:43:42.401Z,986.46
2018-08-23T06:44:42.505Z,986.46
2018-08-23T06:45:42.787Z,986.43
2018-08-23T06:46:42.903Z,986.42
2018-08-23T06:47:43.062Z,986.42
2018-08-23T06:48:43.120Z,986.41
2018-08-23T06:49:43.936Z,986.36
2018-08-23T06:50:43.487Z,986.38
2018-08-23T06:51:43.524Z,986.42
2018-08-23T06:52:43.697Z,986.39
2018-08-23T06:53:44.102Z,986.41
2018-08-23T06:54:44.267Z,986.42
2018-08-23T06:55:44.779Z,986.42
2018-08-23T06:56:44.738Z,986.38
2018-08-23T06:57:44.598Z,986.42
2018-08-23T06:58:44.865Z,986.39
2018-08-23T07:00:45.193Z,986.41
2018-08-23T07:01:45.457Z,986.27
2018-08-23T07:02:45.649Z,986.40
2018-08-23T07:03:45.789Z,986.44
2018-08-23T07:04:45.706Z,986.49
2018-08-23T07:05:47.367Z,986.42
2018-08-23T07:06:46.416Z,986.42
2018-08-23T07:07:46.369Z,986.43
2018-08-23T07:08:46.588Z,986.39
2018-08-23T07:09:46.981Z,986.39
2018-08-23T07:10:46.850Z,986.35
2018-08-23T07:11:47.343Z,986.36
2018-08-23T07:12:47.801Z,986.34
2018-08-23T07:13:47.540Z,986.33
2018-08-23T07:14:47.663Z,986.35
2018-08-23T07:15:47.681Z,986.32
2018-08-23T07:16:48.112Z,986.33
2018-08-23T07:17:48.327Z,986.31
2018-08-23T07:18:48.350Z,986.37
2018-08-23T07:19:48.721Z,986.35
2018-08-23T07:20:48.860Z,986.35
2018-08-23T07:21:49.148Z,986.33
2018-08-23T07:22:49.198Z,986.39
2018-08-23T07:23:49.389Z,986.38
2018-08-23T07:24:49.619Z,986.37
2018-08-23T07:25:49.665Z,986.40
2018-08-23T07:26:50.028Z,986.42
2018-08-23T07:27:50.132Z,986.38
2018-08-23T07:28:50.431Z,986.46
2018-08-23T07:29:50.487Z,986.46
2018-08-23T07:30:50.508Z,986.44
2018-08-23T07:31:50.704Z,986.38
2018-08-23T07:32:51.136Z,986.40
2018-08-23T07:33:52.985Z,986.44
2018-08-23T07:34:52.716Z,986.36
2018-08-23T07:35:51.530Z,986.39
2018-08-23T07:36:51.608Z,986.39
2018-08-23T07:37:51.628Z,986.38
2018-08-23T07:38:52.477Z,986.35
2018-08-23T07:39:52.816Z,986.35
2018-08-23T07:40:53.553Z,986.31
2018-08-23T07:41:53.008Z,986.32
2018-08-23T07:42:52.810Z,986.35
2018-08-23T07:43:53.156Z,986.34
2018-08-23T07:44:53.405Z,986.35
2018-08-23T07:46:53.340Z,986.32
2018-08-23T07:48:54.487Z,986.35
2018-08-23T07:52:41.902Z,986.35
2018-08-23T07:53:49.617Z,986.35
2018-08-23T07:57:26.370Z,986.41
2018-08-23T07:58:21.588Z,986.37
2018-08-23T08:00:43.591Z,986.29
2018-08-23T08:15:42.446Z,986.46
2018-08-23T08:17:46.798Z,986.51
2018-08-23T08:18:53.887Z,986.57
2018-08-23T08:20:23.090Z,986.58
2018-08-23T08:22:29.515Z,986.58
2018-08-23T08:22:52.475Z,986.51
2018-08-23T08:24:45.111Z,986.60
2018-08-23T08:25:40.012Z,986.57
2018-08-23T08:26:36.975Z,986.63
2018-08-23T08:27:37.827Z,986.61
2018-08-23T08:28:37.157Z,986.61
2018-08-23T08:29:37.448Z,986.64
2018-08-23T08:30:37.412Z,986.58
2018-08-23T08:31:37.883Z,986.63
2018-08-23T08:32:38.156Z,986.66
2018-08-23T08:33:38.059Z,986.67
2018-08-23T08:34:39.040Z,986.63
2018-08-23T08:35:38.897Z,986.63
2018-08-23T08:36:38.459Z,986.60
2018-08-23T08:37:38.770Z,986.59
2018-08-23T08:38:38.779Z,986.58
2018-08-23T08:39:40.006Z,986.61
2018-08-23T08:40:39.188Z,986.64
2018-08-23T08:41:39.312Z,986.64
2018-08-23T08:42:39.627Z,986.60
2018-08-23T08:43:39.741Z,986.58
2018-08-23T08:44:40.027Z,986.64
2018-08-23T08:45:40.234Z,986.59
2018-08-23T08:46:40.304Z,986.56
2018-08-23T08:47:40.558Z,986.57
2018-08-23T08:48:40.803Z,986.58
2018-08-23T08:49:40.910Z,986.54
2018-08-23T08:50:41.117Z,986.53
2018-08-23T08:51:41.330Z,986.48
2018-08-23T08:52:41.384Z,986.46
2018-08-23T08:53:41.571Z,986.41
2018-08-23T08:54:41.870Z,986.40
2018-08-23T08:55:41.892Z,986.37
2018-08-23T08:56:42.165Z,986.41
2018-08-23T08:57:42.444Z,986.39
2018-08-23T08:58:42.344Z,986.39
2018-08-23T08:59:42.616Z,986.35
2018-08-23T09:00:42.926Z,986.35
2018-08-23T09:01:43.055Z,986.36
2018-08-23T09:02:43.154Z,986.31
2018-08-23T09:03:43.572Z,986.32
2018-08-23T09:04:43.536Z,986.34
2018-08-23T09:05:44.644Z,986.35
2018-08-23T09:06:44.045Z,986.41
2018-08-23T09:07:44.256Z,986.35
2018-08-23T09:08:44.296Z,986.33
2018-08-23T09:09:44.418Z,986.35
2018-08-23T09:10:44.785Z,986.42
2018-08-23T09:11:44.891Z,986.50
2018-08-23T09:13:45.403Z,986.78
2018-08-23T09:14:45.550Z,987.10
2018-08-23T09:15:45.534Z,987.21
2018-08-23T09:16:45.896Z,986.97
2018-08-23T09:17:46.150Z,986.70
2018-08-23T09:18:46.183Z,986.55
2018-08-23T09:19:46.376Z,986.45
2018-08-23T09:20:46.709Z,986.41
2018-08-23T09:21:46.688Z,986.32
2018-08-23T09:22:46.846Z,986.23
2018-08-23T09:23:47.014Z,986.18
2018-08-23T09:24:47.292Z,986.16
2018-08-23T09:25:47.283Z,986.13
2018-08-23T09:26:47.585Z,986.11
2018-08-23T09:27:47.763Z,986.10
2018-08-23T09:28:48.020Z,986.09
2018-08-23T09:29:48.279Z,986.08
2018-08-23T09:30:48.439Z,986.01
2018-08-23T09:31:48.414Z,986.00
2018-08-23T09:32:48.678Z,985.99
2018-08-23T09:33:48.872Z,986.07
2018-08-23T09:34:49.140Z,986.06
2018-08-23T09:35:49.161Z,986.11
2018-08-23T09:36:49.383Z,986.24
2018-08-23T09:37:49.870Z,986.29
2018-08-23T09:38:49.889Z,986.31
2018-08-23T09:39:50.169Z,986.38
2018-08-23T09:40:50.351Z,986.43
2018-08-23T09:41:50.579Z,986.47
2018-08-23T09:42:50.731Z,986.50
2018-08-23T09:43:51.493Z,986.63
2018-08-23T09:44:50.875Z,986.60
2018-08-23T09:45:51.130Z,986.45
2018-08-23T09:46:51.395Z,986.37
2018-08-23T09:47:51.489Z,986.34
2018-08-23T09:48:51.714Z,986.18
2018-08-23T09:49:52.035Z,986.17
2018-08-23T09:50:52.288Z,986.15
2018-08-23T09:51:52.298Z,986.22
2018-08-23T09:52:52.350Z,986.17
2018-08-23T09:53:52.640Z,986.18
2018-08-23T09:54:52.914Z,986.18
2018-08-23T09:55:53.085Z,986.19
2018-08-23T09:56:53.232Z,986.18
2018-08-23T09:57:53.358Z,986.15
2018-08-23T09:58:53.534Z,986.19
2018-08-23T09:59:53.843Z,986.17
2018-08-23T10:00:54.174Z,986.12
2018-08-23T10:01:54.098Z,986.17
2018-08-23T10:02:54.666Z,986.17
2018-08-23T10:03:54.330Z,986.15
2018-08-23T10:04:54.689Z,986.00
2018-08-23T10:05:54.969Z,986.00
2018-08-23T10:07:55.247Z,986.05
2018-08-23T10:08:55.492Z,986.10
2018-08-23T10:09:55.568Z,986.14
2018-08-23T10:10:55.903Z,986.11
2018-08-23T10:11:55.930Z,986.14
2018-08-23T10:12:56.108Z,986.18
2018-08-23T10:13:56.299Z,986.08
2018-08-23T10:14:56.440Z,986.09
2018-08-23T10:15:56.766Z,986.13
2018-08-23T10:16:56.891Z,986.15
2018-08-23T10:17:57.128Z,986.13
2018-08-23T10:18:57.233Z,986.09
2018-08-23T10:19:57.506Z,986.08
2018-08-23T10:20:57.579Z,986.06
2018-08-23T10:21:58.094Z,986.10
2018-08-23T10:22:58.070Z,985.99
2018-08-23T10:23:58.374Z,985.99
2018-08-23T10:24:58.501Z,986.01
2018-08-23T10:25:58.641Z,985.99
2018-08-23T10:26:59.044Z,986.01
2018-08-23T10:27:59.141Z,985.91
2018-08-23T10:28:59.275Z,985.84
2018-08-23T10:29:59.812Z,985.83
2018-08-23T10:30:59.558Z,985.93
2018-08-23T10:31:59.830Z,985.88
2018-08-23T10:32:59.964Z,985.83
2018-08-23T10:33:59.932Z,986.17
2018-08-23T10:35:00.215Z,986.09
2018-08-23T10:36:00.701Z,986.29
2018-08-23T10:37:00.634Z,986.01
2018-08-23T10:38:00.930Z,986.31
2018-08-23T10:39:00.972Z,986.32
2018-08-23T10:40:01.158Z,986.01
2018-08-23T10:41:01.308Z,986.12
2018-08-23T10:42:01.573Z,985.98
2018-08-23T10:43:01.878Z,985.94
2018-08-23T10:44:01.845Z,985.69
2018-08-23T10:45:02.031Z,985.67
2018-08-23T10:46:02.249Z,985.59
2018-08-23T10:47:02.570Z,985.89
2018-08-23T10:48:02.581Z,985.93
2018-08-23T10:49:02.763Z,985.84
2018-08-23T10:50:02.982Z,985.90
2018-08-23T10:51:03.157Z,985.87
2018-08-23T10:52:03.297Z,985.83
2018-08-23T10:53:03.464Z,985.74
2018-08-23T10:54:03.713Z,985.72
2018-08-23T10:55:04.001Z,985.72
2018-08-23T10:56:04.201Z,985.69
2018-08-23T10:57:04.306Z,985.64
2018-08-23T10:58:04.666Z,985.70
2018-08-23T10:59:04.851Z,985.68
2018-08-23T11:00:04.966Z,985.63
2018-08-23T11:01:04.999Z,985.73
2018-08-23T11:02:05.280Z,985.78
2018-08-23T11:03:05.366Z,985.90
2018-08-23T11:04:05.633Z,985.92
2018-08-23T11:05:06.001Z,985.96
2018-08-23T11:06:06.068Z,985.99
2018-08-23T11:07:06.112Z,985.97
2018-08-23T11:08:06.502Z,985.91
2018-08-23T11:09:06.698Z,985.87
2018-08-23T11:10:07.061Z,985.84
2018-08-23T11:11:07.057Z,985.78
2018-08-23T11:12:07.510Z,985.78
2018-08-23T11:13:07.618Z,985.73
2018-08-23T11:14:07.914Z,985.75
2018-08-23T11:15:07.778Z,985.83
2018-08-23T11:16:07.982Z,985.77
2018-08-23T11:17:08.133Z,985.78
2018-08-23T11:18:08.261Z,985.83
2018-08-23T11:19:08.440Z,985.87
2018-08-23T11:20:08.684Z,985.89
2018-08-23T11:21:08.936Z,985.97
2018-08-23T11:22:08.920Z,985.99
2018-08-23T11:23:09.460Z,986.01
2018-08-23T11:24:09.372Z,986.07
2018-08-23T11:25:09.444Z,986.09
2018-08-23T11:26:09.675Z,986.13
2018-08-23T11:27:09.907Z,986.19
2018-08-23T11:28:10.178Z,986.23
2018-08-23T11:29:10.405Z,986.20
2018-08-23T11:30:10.627Z,986.06
2018-08-23T11:31:10.832Z,986.27
2018-08-23T11:32:11.118Z,985.57
2018-08-23T11:33:11.046Z,985.22
2018-08-23T11:34:11.367Z,985.29
2018-08-23T11:35:11.586Z,985.33
2018-08-23T11:36:11.757Z,985.34
2018-08-23T11:37:11.903Z,985.50
2018-08-23T11:38:12.137Z,985.54
2018-08-23T11:39:12.421Z,985.99
2018-08-23T11:40:12.507Z,986.04
2018-08-23T11:41:12.920Z,985.72
2018-08-23T11:42:12.817Z,985.45
2018-08-23T11:43:12.914Z,985.54
2018-08-23T11:44:13.180Z,985.49
2018-08-23T11:45:13.329Z,985.99
2018-08-23T11:46:13.380Z,986.01
2018-08-23T11:47:13.655Z,985.92
2018-08-23T11:48:13.943Z,985.95
2018-08-23T11:49:14.150Z,985.88
2018-08-23T11:50:14.323Z,985.95
2018-08-23T11:51:14.400Z,985.91
2018-08-23T11:52:14.767Z,985.93
2018-08-23T11:53:14.903Z,985.87
2018-08-23T11:54:14.973Z,985.81
2018-08-23T11:55:15.298Z,985.78
2018-08-23T11:56:15.464Z,985.78
2018-08-23T11:57:15.627Z,985.82
2018-08-23T11:58:15.781Z,985.42
2018-08-23T11:59:16.212Z,985.14
2018-08-23T12:00:16.352Z,985.77
2018-08-23T12:01:16.416Z,985.82
2018-08-23T12:02:16.632Z,985.82
2018-08-23T12:03:17.035Z,985.79
2018-08-23T12:04:17.190Z,985.76
2018-08-23T12:05:17.378Z,985.80
2018-08-23T12:06:17.460Z,985.83
2018-08-23T12:07:17.775Z,985.82
2018-08-23T12:08:17.915Z,985.75
2018-08-23T12:09:18.114Z,985.71
2018-08-23T12:10:18.322Z,985.76
2018-08-23T12:11:18.440Z,985.69
2018-08-23T12:12:18.496Z,985.70
2018-08-23T12:13:18.852Z,985.66
2018-08-23T12:14:18.922Z,985.63
2018-08-23T12:15:19.132Z,985.69
2018-08-23T12:16:19.438Z,985.69
2018-08-23T12:17:19.706Z,985.68
2018-08-23T12:18:19.668Z,985.04
2018-08-23T12:19:19.872Z,984.72
2018-08-23T12:20:20.091Z,985.55
2018-08-23T12:21:20.252Z,985.73
2018-08-23T12:22:20.547Z,985.70
2018-08-23T12:23:20.673Z,985.69
2018-08-23T12:24:20.864Z,985.78
2018-08-23T12:25:20.999Z,985.72
2018-08-23T12:26:21.139Z,985.75
2018-08-23T12:27:21.403Z,985.76
2018-08-23T12:28:21.643Z,985.75
2018-08-23T12:29:21.733Z,985.70
2018-08-23T12:30:21.969Z,984.61
2018-08-23T12:31:22.086Z,984.59
2018-08-23T12:32:22.262Z,984.85
2018-08-23T12:33:22.469Z,985.70
2018-08-23T12:34:22.693Z,985.60
2018-08-23T12:35:22.808Z,985.60
2018-08-23T12:36:23.085Z,985.32
2018-08-23T12:37:23.268Z,985.15
2018-08-23T12:38:23.453Z,985.05
2018-08-23T12:39:23.728Z,984.73
2018-08-23T12:40:23.910Z,985.00
2018-08-23T12:41:24.100Z,984.83
2018-08-23T12:42:24.153Z,984.81
2018-08-23T12:43:24.299Z,984.71
2018-08-23T12:44:24.598Z,984.62
2018-08-23T12:45:24.863Z,984.67
2018-08-23T12:46:25.029Z,984.80
2018-08-23T12:47:25.118Z,984.90
2018-08-23T12:48:25.270Z,984.76
2018-08-23T12:49:25.812Z,984.70
2018-08-23T12:50:25.781Z,984.61
2018-08-23T12:51:25.968Z,984.71
2018-08-23T12:52:26.103Z,984.67
2018-08-23T12:53:26.294Z,984.85
2018-08-23T12:54:26.471Z,984.97
2018-08-23T12:55:26.735Z,984.92
2018-08-23T12:56:26.964Z,984.89
2018-08-23T12:57:27.064Z,984.87
2018-08-23T12:58:27.235Z,984.86
2018-08-23T12:59:27.465Z,984.80
2018-08-23T13:00:27.681Z,984.76
2018-08-23T13:01:28.007Z,984.79
2018-08-23T13:02:28.261Z,984.75
2018-08-23T13:03:28.335Z,984.60
2018-08-23T13:04:28.504Z,984.72
2018-08-23T13:05:28.817Z,984.61
2018-08-23T13:06:29.027Z,984.67
2018-08-23T13:07:29.097Z,984.54
2018-08-23T13:08:29.318Z,984.53
2018-08-23T13:09:29.401Z,984.61
2018-08-23T13:10:29.638Z,984.24
2018-08-23T13:11:29.793Z,984.31
2018-08-23T13:12:30.139Z,984.19
2018-08-23T13:13:30.230Z,984.39
2018-08-23T13:14:30.301Z,984.47
2018-08-23T13:15:30.624Z,984.18
2018-08-23T13:16:30.784Z,984.14
2018-08-23T13:17:31.023Z,984.34
2018-08-23T13:18:31.172Z,984.35
2018-08-23T13:19:31.308Z,984.19
2018-08-23T13:20:31.468Z,984.47
2018-08-23T13:21:31.741Z,984.50
2018-08-23T13:22:31.838Z,984.47
2018-08-23T13:23:32.039Z,984.36
2018-08-23T13:24:32.425Z,984.34
2018-08-23T13:25:32.463Z,984.14
2018-08-23T13:26:32.671Z,984.18
2018-08-23T13:27:32.890Z,984.45
2018-08-23T13:28:33.069Z,984.38
2018-08-23T13:29:33.323Z,984.42
2018-08-23T13:30:33.491Z,984.38
2018-08-23T13:31:33.680Z,984.41
2018-08-23T13:32:33.718Z,984.39
2018-08-23T13:33:33.928Z,984.31
2018-08-23T13:34:34.199Z,984.34
2018-08-23T13:35:34.485Z,984.35
2018-08-23T13:36:34.524Z,984.32
2018-08-23T13:37:34.657Z,984.20
2018-08-23T13:38:35.304Z,984.14
2018-08-23T13:39:35.035Z,984.13
2018-08-23T13:40:35.192Z,984.10
2018-08-23T13:41:35.359Z,984.04
2018-08-23T13:42:35.528Z,984.00
2018-08-23T13:43:35.875Z,983.88
2018-08-23T13:44:35.879Z,983.84
2018-08-23T13:45:36.114Z,983.90
2018-08-23T13:46:36.271Z,983.94
2018-08-23T13:47:36.463Z,983.95
2018-08-23T13:48:36.717Z,983.96
2018-08-23T13:49:36.805Z,983.90
2018-08-23T13:50:37.035Z,983.96
2018-08-23T13:51:37.206Z,983.99
2018-08-23T13:52:37.512Z,984.02
2018-08-23T13:53:37.659Z,983.87
2018-08-23T13:54:37.907Z,983.85
2018-08-23T13:55:38.000Z,983.85
2018-08-23T13:56:38.282Z,983.92
2018-08-23T13:57:38.494Z,983.89
2018-08-23T13:58:38.674Z,984.00
2018-08-23T13:59:38.837Z,984.12
2018-08-23T14:00:39.068Z,984.10
2018-08-23T14:01:39.247Z,984.16
2018-08-23T14:02:39.467Z,984.13
2018-08-23T14:03:39.571Z,984.13
2018-08-23T14:04:39.875Z,984.15
2018-08-23T14:05:40.109Z,984.06
2018-08-23T14:06:40.172Z,984.18
2018-08-23T14:07:40.325Z,984.12
2018-08-23T14:08:40.518Z,983.93
2018-08-23T14:09:40.724Z,984.00
2018-08-23T14:10:40.919Z,984.04
2018-08-23T14:11:41.109Z,983.84
2018-08-23T14:12:41.295Z,983.86
2018-08-23T14:13:41.460Z,984.06
2018-08-23T14:14:41.674Z,984.11
2018-08-23T14:15:41.786Z,984.13
2018-08-23T14:16:42.024Z,984.09
2018-08-23T14:17:42.177Z,984.05
2018-08-23T14:18:42.519Z,983.99
2018-08-23T14:19:42.700Z,984.03
2018-08-23T14:20:42.839Z,984.06
2018-08-23T14:21:42.971Z,983.99
2018-08-23T14:22:43.194Z,983.96
2018-08-23T14:23:43.324Z,983.94
2018-08-23T14:24:43.539Z,983.92
2018-08-23T14:25:43.808Z,983.92
2018-08-23T14:26:43.975Z,983.90
2018-08-23T14:27:44.169Z,983.90
2018-08-23T14:28:44.242Z,983.83
2018-08-23T14:29:44.475Z,983.64
2018-08-23T14:30:44.832Z,983.77
2018-08-23T14:31:44.897Z,983.84
2018-08-23T14:32:45.066Z,983.81
2018-08-23T14:33:45.232Z,983.75
2018-08-23T14:34:45.513Z,983.74
2018-08-23T14:35:45.647Z,983.68
2018-08-23T14:36:45.797Z,983.76
2018-08-23T14:37:45.977Z,983.72
2018-08-23T14:38:46.152Z,983.65
2018-08-23T14:39:46.391Z,983.69
2018-08-23T14:40:46.582Z,983.63
2018-08-23T14:41:46.847Z,983.59
2018-08-23T14:42:47.226Z,983.64
2018-08-23T14:43:47.101Z,983.68
2018-08-23T14:44:47.314Z,983.78
2018-08-23T14:45:47.536Z,983.67
2018-08-23T14:46:47.744Z,983.69
2018-08-23T14:47:47.848Z,983.68
2018-08-23T14:48:48.149Z,983.61
2018-08-23T14:49:48.314Z,983.56
2018-08-23T14:50:48.413Z,983.66
2018-08-23T14:51:48.780Z,983.63
2018-08-23T14:52:48.865Z,983.61
2018-08-23T14:53:49.086Z,983.57
2018-08-23T14:54:49.258Z,983.52
2018-08-23T14:55:49.404Z,983.59
2018-08-23T14:56:49.571Z,983.62
2018-08-23T14:57:49.823Z,983.61
2018-08-23T14:58:50.029Z,983.56
2018-08-23T14:59:50.275Z,983.57
2018-08-23T15:00:50.384Z,983.47
2018-08-23T15:01:50.633Z,983.52
2018-08-23T15:02:50.780Z,983.52
2018-08-23T15:03:50.857Z,983.52
2018-08-23T15:04:51.064Z,983.47
2018-08-23T15:05:51.361Z,983.47
2018-08-23T15:06:51.454Z,983.49
2018-08-23T15:07:51.777Z,983.49
2018-08-23T15:08:51.879Z,983.53
2018-08-23T15:09:52.194Z,983.57
2018-08-23T15:10:52.322Z,983.52
2018-08-23T15:11:52.473Z,983.45
2018-08-23T15:12:52.693Z,983.42
2018-08-23T15:13:52.838Z,983.39
2018-08-23T15:14:53.069Z,983.38
2018-08-23T15:15:53.125Z,983.36
2018-08-23T15:16:53.432Z,983.41
2018-08-23T15:17:54.313Z,983.52
2018-08-23T15:18:53.740Z,983.43
2018-08-23T15:19:54.032Z,983.45
2018-08-23T15:20:54.232Z,983.45
2018-08-23T15:21:54.922Z,983.44
2018-08-23T15:22:56.303Z,983.39
2018-08-23T15:23:54.661Z,983.37
2018-08-23T15:24:54.871Z,983.39
2018-08-23T15:25:55.136Z,983.42
2018-08-23T15:26:55.512Z,983.40
2018-08-23T15:27:55.495Z,983.37
2018-08-23T15:28:55.669Z,983.33
2018-08-23T15:29:55.975Z,983.30
2018-08-23T15:30:55.987Z,983.41
2018-08-23T15:31:56.379Z,983.42
2018-08-23T15:32:56.592Z,983.40
2018-08-23T15:33:56.661Z,983.31
2018-08-23T15:34:56.913Z,983.34
2018-08-23T15:35:57.003Z,983.34
2018-08-23T15:36:57.355Z,983.31
2018-08-23T15:37:57.419Z,983.33
2018-08-23T15:38:59.608Z,983.30
2018-08-23T15:39:57.784Z,983.28
2018-08-23T15:40:58.054Z,983.25
2018-08-23T15:41:58.270Z,983.21
2018-08-23T15:42:58.448Z,983.21
2018-08-23T15:43:58.626Z,983.23
2018-08-23T15:44:58.842Z,983.24
2018-08-23T15:45:59.043Z,983.21
2018-08-23T15:46:59.276Z,983.24
2018-08-23T15:47:59.431Z,983.32
2018-08-23T15:48:59.591Z,983.26
2018-08-23T15:49:59.885Z,983.26
2018-08-23T15:51:00.001Z,983.22
2018-08-23T15:52:00.181Z,983.30
2018-08-23T15:53:00.475Z,983.32
2018-08-23T15:54:00.565Z,983.27
2018-08-23T15:55:00.823Z,983.33
2018-08-23T15:56:00.935Z,983.25
2018-08-23T15:57:01.120Z,983.25
2018-08-23T15:58:01.353Z,983.22
2018-08-23T15:59:01.530Z,983.20
2018-08-23T16:00:01.709Z,983.27